Terminal Aerodrome Forecast
Issued by NWS North Platte, NE

Home | Current Version | Previous Version | Graphics & Text | Print | Product List | Glossary On
Versions: 1 2 3 4 5 6 7 8 9 10 11 12 13 14 15 16 17
604
FTUS43 KLBF 191120
TAFVTN
TAF
KVTN 191120Z 1912/2012 14004KT P6SM SKC
     FM191400 18008G18KT P6SM SKC
     FM192200 19012G20KT P6SM VCTS FEW070CB BKN250
     FM200200 VRB06KT P6SM FEW200=

USA.gov is the U.S. government's official web portal to all federal, state and local government web resources and services.